Terminal Aerodrome Forecast
Issued by NWS Los Angeles, CA

Home | Current Version | Previous Version | Text Only | Print | Product List | Glossary On
Versions: 1 2 3 4 5 6 7 8 9 10 11 12 13 14 15 16 17 18 19 20 21 22 23 24 25 26 27 28 29 30 31 32
549
FTUS46 KLOX 242102 AAB
TAFSMX
TAF AMD
KSMX 242102Z 2421/2518 24014G17KT P6SM FEW012 BKN120
     FM250400 VRB03KT 5SM BR OVC004
     FM250800 VRB03KT 5SM BR OVC006=

USA.gov is the U.S. government's official web portal to all federal, state and local government web resources and services.